sensor_id;sensor_type;location;lat;lon;timestamp;temperature;humidity
15969;DHT22;8085;53.472;9.794;2022-07-10T00:01:28;14.00;99.90
15969;DHT22;8085;53.472;9.794;2022-07-10T00:03:55;14.10;99.90
15969;DHT22;8085;53.472;9.794;2022-07-10T00:06:22;14.10;99.90
15969;DHT22;8085;53.472;9.794;2022-07-10T00:08:49;14.20;99.90
15969;DHT22;8085;53.472;9.794;2022-07-10T00:11:16;14.30;99.90
15969;DHT22;8085;53.472;9.794;2022-07-10T00:13:43;14.30;99.90
15969;DHT22;8085;53.472;9.794;2022-07-10T00:16:11;14.30;99.90
15969;DHT22;8085;53.472;9.794;2022-07-10T00:18:40;14.30;99.90
15969;DHT22;8085;53.472;9.794;2022-07-10T00:21:07;14.20;99.90
15969;DHT22;8085;53.472;9.794;2022-07-10T00:23:34;14.20;99.90
15969;DHT22;8085;53.472;9.794;2022-07-10T00:26:01;14.00;99.90
15969;DHT22;8085;53.472;9.794;2022-07-10T00:28:31;13.90;99.90
15969;DHT22;8085;53.472;9.794;2022-07-10T00:30:58;13.90;99.90
15969;DHT22;8085;53.472;9.794;2022-07-10T00:33:26;13.80;99.90
15969;DHT22;8085;53.472;9.794;2022-07-10T00:35:54;13.80;99.90
15969;DHT22;8085;53.472;9.794;2022-07-10T00:38:20;13.80;99.90
15969;DHT22;8085;53.472;9.794;2022-07-10T00:40:47;13.90;99.90
15969;DHT22;8085;53.472;9.794;2022-07-10T00:43:14;13.90;99.90
15969;DHT22;8085;53.472;9.794;2022-07-10T00:45:42;14.00;99.90
15969;DHT22;8085;53.472;9.794;2022-07-10T00:48:08;14.10;99.90
15969;DHT22;8085;53.472;9.794;2022-07-10T00:50:37;14.10;99.90
15969;DHT22;8085;53.472;9.794;2022-07-10T00:53:04;14.10;99.90
15969;DHT22;8085;53.472;9.794;2022-07-10T00:55:32;14.10;99.90
15969;DHT22;8085;53.472;9.794;2022-07-10T00:58:00;14.10;99.90
15969;DHT22;8085;53.472;9.794;2022-07-10T01:00:28;14.10;99.90
15969;DHT22;8085;53.472;9.794;2022-07-10T01:02:56;14.10;99.90
15969;DHT22;8085;53.472;9.794;2022-07-10T01:05:23;14.10;99.90
15969;DHT22;8085;53.472;9.794;2022-07-10T01:07:51;13.90;99.90
15969;DHT22;8085;53.472;9.794;2022-07-10T01:10:18;13.90;99.90
15969;DHT22;8085;53.472;9.794;2022-07-10T01:12:45;14.00;99.90
15969;DHT22;8085;53.472;9.794;2022-07-10T01:15:12;14.10;99.90
15969;DHT22;8085;53.472;9.794;2022-07-10T01:17:39;14.10;99.90
15969;DHT22;8085;53.472;9.794;2022-07-10T01:20:07;14.00;99.90
15969;DHT22;8085;53.472;9.794;2022-07-10T01:22:37;14.00;99.90
15969;DHT22;8085;53.472;9.794;2022-07-10T01:25:05;14.00;99.90
15969;DHT22;8085;53.472;9.794;2022-07-10T01:27:33;14.00;99.90
15969;DHT22;8085;53.472;9.794;2022-07-10T01:30:00;14.00;99.90
15969;DHT22;8085;53.472;9.794;2022-07-10T01:32:27;14.00;99.90
15969;DHT22;8085;53.472;9.794;2022-07-10T01:34:54;14.00;98.40
15969;DHT22;8085;53.472;9.794;2022-07-10T01:37:20;14.10;99.90
15969;DHT22;8085;53.472;9.794;2022-07-10T01:39:49;14.00;97.90
15969;DHT22;8085;53.472;9.794;2022-07-10T01:42:16;14.00;98.90
15969;DHT22;8085;53.472;9.794;2022-07-10T01:44:43;14.10;99.90
15969;DHT22;8085;53.472;9.794;2022-07-10T01:47:09;14.10;97.50
15969;DHT22;8085;53.472;9.794;2022-07-10T01:49:36;14.00;97.60
15969;DHT22;8085;53.472;9.794;2022-07-10T01:52:04;14.00;98.10
15969;DHT22;8085;53.472;9.794;2022-07-10T01:54:31;14.00;99.20
15969;DHT22;8085;53.472;9.794;2022-07-10T01:57:00;14.00;99.90
15969;DHT22;8085;53.472;9.794;2022-07-10T01:59:27;14.00;99.90
15969;DHT22;8085;53.472;9.794;2022-07-10T02:01:54;13.90;99.90
15969;DHT22;8085;53.472;9.794;2022-07-10T02:04:21;13.80;99.90
15969;DHT22;8085;53.472;9.794;2022-07-10T02:07:05;13.80;99.90
15969;DHT22;8085;53.472;9.794;2022-07-10T02:09:32;13.80;99.90
15969;DHT22;8085;53.472;9.794;2022-07-10T02:12:01;13.80;99.90
15969;DHT22;8085;53.472;9.794;2022-07-10T02:14:28;13.90;99.90
15969;DHT22;8085;53.472;9.794;2022-07-10T02:16:55;13.80;99.90
15969;DHT22;8085;53.472;9.794;2022-07-10T02:19:22;13.80;99.90
15969;DHT22;8085;53.472;9.794;2022-07-10T02:21:49;13.90;99.90
15969;DHT22;8085;53.472;9.794;2022-07-10T02:24:16;13.90;97.50
15969;DHT22;8085;53.472;9.794;2022-07-10T02:26:43;13.90;99.40
15969;DHT22;8085;53.472;9.794;2022-07-10T02:29:12;13.80;96.80
15969;DHT22;8085;53.472;9.794;2022-07-10T02:31:39;13.80;97.40
15969;DHT22;8085;53.472;9.794;2022-07-10T02:34:07;13.80;98.60
15969;DHT22;8085;53.472;9.794;2022-07-10T02:36:34;13.80;96.80
15969;DHT22;8085;53.472;9.794;2022-07-10T02:39:00;13.80;97.90
15969;DHT22;8085;53.472;9.794;2022-07-10T02:41:27;13.80;96.80
15969;DHT22;8085;53.472;9.794;2022-07-10T02:43:54;13.80;95.50
15969;DHT22;8085;53.472;9.794;2022-07-10T02:46:23;13.80;93.90
15969;DHT22;8085;53.472;9.794;2022-07-10T02:48:50;13.80;96.80
15969;DHT22;8085;53.472;9.794;2022-07-10T02:51:17;13.80;95.40
15969;DHT22;8085;53.472;9.794;2022-07-10T02:53:44;13.70;96.60
15969;DHT22;8085;53.472;9.794;2022-07-10T02:56:11;13.80;96.50
15969;DHT22;8085;53.472;9.794;2022-07-10T02:58:38;13.80;94.60
15969;DHT22;8085;53.472;9.794;2022-07-10T03:01:05;13.70;93.30
15969;DHT22;8085;53.472;9.794;2022-07-10T03:03:34;13.80;94.20
15969;DHT22;8085;53.472;9.794;2022-07-10T03:06:01;13.80;93.60
15969;DHT22;8085;53.472;9.794;2022-07-10T03:08:28;13.80;94.30
15969;DHT22;8085;53.472;9.794;2022-07-10T03:10:55;13.80;94.50
15969;DHT22;8085;53.472;9.794;2022-07-10T03:13:22;13.70;93.70
15969;DHT22;8085;53.472;9.794;2022-07-10T03:15:49;13.70;92.10
15969;DHT22;8085;53.472;9.794;2022-07-10T03:18:16;13.70;92.50
15969;DHT22;8085;53.472;9.794;2022-07-10T03:20:45;13.70;92.90
15969;DHT22;8085;53.472;9.794;2022-07-10T03:23:12;13.70;92.40
15969;DHT22;8085;53.472;9.794;2022-07-10T03:25:38;13.60;90.60
15969;DHT22;8085;53.472;9.794;2022-07-10T03:28:05;13.60;91.20
15969;DHT22;8085;53.472;9.794;2022-07-10T03:30:32;13.60;91.10
15969;DHT22;8085;53.472;9.794;2022-07-10T03:32:59;13.60;88.50
15969;DHT22;8085;53.472;9.794;2022-07-10T03:35:28;13.60;90.00
15969;DHT22;8085;53.472;9.794;2022-07-10T03:37:58;13.60;89.10
15969;DHT22;8085;53.472;9.794;2022-07-10T03:40:25;13.60;88.80
15969;DHT22;8085;53.472;9.794;2022-07-10T03:42:52;13.50;92.00
15969;DHT22;8085;53.472;9.794;2022-07-10T03:45:19;13.60;91.80
15969;DHT22;8085;53.472;9.794;2022-07-10T03:47:46;13.60;90.30
15969;DHT22;8085;53.472;9.794;2022-07-10T03:50:13;13.60;90.80
15969;DHT22;8085;53.472;9.794;2022-07-10T03:52:40;13.60;91.00
15969;DHT22;8085;53.472;9.794;2022-07-10T03:55:09;13.60;86.80
15969;DHT22;8085;53.472;9.794;2022-07-10T03:57:36;13.60;88.50
15969;DHT22;8085;53.472;9.794;2022-07-10T04:00:20;13.60;90.30
15969;DHT22;8085;53.472;9.794;2022-07-10T04:02:49;13.60;90.40
15969;DHT22;8085;53.472;9.794;2022-07-10T04:05:20;13.60;87.90
15969;DHT22;8085;53.472;9.794;2022-07-10T04:07:47;13.50;89.80
15969;DHT22;8085;53.472;9.794;2022-07-10T04:10:16;13.50;93.10
15969;DHT22;8085;53.472;9.794;2022-07-10T04:12:43;13.60;91.40
15969;DHT22;8085;53.472;9.794;2022-07-10T04:15:10;13.60;90.50
15969;DHT22;8085;53.472;9.794;2022-07-10T04:17:37;13.50;91.10
15969;DHT22;8085;53.472;9.794;2022-07-10T04:20:05;13.50;93.00
15969;DHT22;8085;53.472;9.794;2022-07-10T04:22:32;13.50;92.30
15969;DHT22;8085;53.472;9.794;2022-07-10T04:24:59;13.50;95.10
15969;DHT22;8085;53.472;9.794;2022-07-10T04:27:27;13.60;97.30
15969;DHT22;8085;53.472;9.794;2022-07-10T04:29:54;13.60;99.10
15969;DHT22;8085;53.472;9.794;2022-07-10T04:32:21;13.60;95.20
15969;DHT22;8085;53.472;9.794;2022-07-10T04:34:48;13.60;97.60
15969;DHT22;8085;53.472;9.794;2022-07-10T04:37:15;13.70;98.70
15969;DHT22;8085;53.472;9.794;2022-07-10T04:39:42;13.80;98.40
15969;DHT22;8085;53.472;9.794;2022-07-10T04:42:10;13.80;93.40
15969;DHT22;8085;53.472;9.794;2022-07-10T04:44:38;13.80;92.20
15969;DHT22;8085;53.472;9.794;2022-07-10T04:47:05;13.80;93.60
15969;DHT22;8085;53.472;9.794;2022-07-10T04:49:33;13.80;93.20
15969;DHT22;8085;53.472;9.794;2022-07-10T04:52:00;13.80;90.80
15969;DHT22;8085;53.472;9.794;2022-07-10T04:54:27;13.80;91.40
15969;DHT22;8085;53.472;9.794;2022-07-10T04:56:54;13.80;93.30
15969;DHT22;8085;53.472;9.794;2022-07-10T04:59:21;13.80;93.10
15969;DHT22;8085;53.472;9.794;2022-07-10T05:01:49;13.80;94.30
15969;DHT22;8085;53.472;9.794;2022-07-10T05:04:16;13.90;93.60
15969;DHT22;8085;53.472;9.794;2022-07-10T05:06:43;13.90;91.40
15969;DHT22;8085;53.472;9.794;2022-07-10T05:09:10;13.80;86.70
15969;DHT22;8085;53.472;9.794;2022-07-10T05:11:37;13.90;84.10
15969;DHT22;8085;53.472;9.794;2022-07-10T05:14:04;13.90;83.00
15969;DHT22;8085;53.472;9.794;2022-07-10T05:16:31;14.00;77.10
15969;DHT22;8085;53.472;9.794;2022-07-10T05:18:59;14.00;72.80
15969;DHT22;8085;53.472;9.794;2022-07-10T05:21:26;14.10;69.40
15969;DHT22;8085;53.472;9.794;2022-07-10T05:23:53;14.20;64.60
15969;DHT22;8085;53.472;9.794;2022-07-10T05:26:20;14.30;60.90
15969;DHT22;8085;53.472;9.794;2022-07-10T05:28:46;14.30;58.90
15969;DHT22;8085;53.472;9.794;2022-07-10T05:31:13;14.30;57.90
15969;DHT22;8085;53.472;9.794;2022-07-10T05:33:40;14.40;55.50
15969;DHT22;8085;53.472;9.794;2022-07-10T05:36:10;14.40;52.60
15969;DHT22;8085;53.472;9.794;2022-07-10T05:38:37;14.50;51.00
15969;DHT22;8085;53.472;9.794;2022-07-10T05:41:03;14.50;44.30
15969;DHT22;8085;53.472;9.794;2022-07-10T05:43:30;14.60;39.20
15969;DHT22;8085;53.472;9.794;2022-07-10T05:45:57;14.70;31.80
15969;DHT22;8085;53.472;9.794;2022-07-10T05:48:25;14.70;22.60
15969;DHT22;8085;53.472;9.794;2022-07-10T05:50:52;14.80;20.90
15969;DHT22;8085;53.472;9.794;2022-07-10T05:53:20;14.90;16.00
15969;DHT22;8085;53.472;9.794;2022-07-10T05:55:47;14.90;7.50
15969;DHT22;8085;53.472;9.794;2022-07-10T05:58:14;15.10;1.00
15969;DHT22;8085;53.472;9.794;2022-07-10T06:00:41;15.10;1.00
15969;DHT22;8085;53.472;9.794;2022-07-10T06:03:09;15.10;1.00
15969;DHT22;8085;53.472;9.794;2022-07-10T06:05:36;15.00;1.00
15969;DHT22;8085;53.472;9.794;2022-07-10T06:08:03;15.00;1.00
15969;DHT22;8085;53.472;9.794;2022-07-10T06:10:32;15.10;1.00
15969;DHT22;8085;53.472;9.794;2022-07-10T06:12:59;15.10;1.00
15969;DHT22;8085;53.472;9.794;2022-07-10T06:15:26;15.10;1.00
15969;DHT22;8085;53.472;9.794;2022-07-10T06:17:56;15.00;1.00
15969;DHT22;8085;53.472;9.794;2022-07-10T06:20:23;15.10;1.00
15969;DHT22;8085;53.472;9.794;2022-07-10T06:22:50;15.20;1.00
15969;DHT22;8085;53.472;9.794;2022-07-10T06:25:17;15.30;1.00
15969;DHT22;8085;53.472;9.794;2022-07-10T06:27:45;15.50;1.00
15969;DHT22;8085;53.472;9.794;2022-07-10T06:30:12;15.70;1.00
15969;DHT22;8085;53.472;9.794;2022-07-10T06:32:39;15.90;1.00
15969;DHT22;8085;53.472;9.794;2022-07-10T06:35:07;15.90;1.00
15969;DHT22;8085;53.472;9.794;2022-07-10T06:37:34;16.10;1.00
15969;DHT22;8085;53.472;9.794;2022-07-10T06:40:02;16.40;1.00
15969;DHT22;8085;53.472;9.794;2022-07-10T06:42:29;16.50;1.00
15969;DHT22;8085;53.472;9.794;2022-07-10T06:44:57;16.60;1.00
15969;DHT22;8085;53.472;9.794;2022-07-10T06:47:24;16.60;1.00
15969;DHT22;8085;53.472;9.794;2022-07-10T06:50:09;16.70;1.00
15969;DHT22;8085;53.472;9.794;2022-07-10T06:52:37;16.70;1.00
15969;DHT22;8085;53.472;9.794;2022-07-10T06:55:05;16.70;1.00
15969;DHT22;8085;53.472;9.794;2022-07-10T06:57:32;16.80;1.00
15969;DHT22;8085;53.472;9.794;2022-07-10T07:00:06;16.80;1.00
15969;DHT22;8085;53.472;9.794;2022-07-10T07:02:35;16.90;99.90
15969;DHT22;8085;53.472;9.794;2022-07-10T07:05:02;16.90;68.10
15969;DHT22;8085;53.472;9.794;2022-07-10T07:07:29;17.00;1.00
15969;DHT22;8085;53.472;9.794;2022-07-10T07:09:57;17.20;99.90
15969;DHT22;8085;53.472;9.794;2022-07-10T07:12:24;17.30;1.00
15969;DHT22;8085;53.472;9.794;2022-07-10T07:14:50;17.40;99.90
15969;DHT22;8085;53.472;9.794;2022-07-10T07:17:19;17.40;1.00
15969;DHT22;8085;53.472;9.794;2022-07-10T07:19:49;17.30;1.00
15969;DHT22;8085;53.472;9.794;2022-07-10T07:22:34;17.10;1.00
15969;DHT22;8085;53.472;9.794;2022-07-10T07:25:18;16.80;1.00
15969;DHT22;8085;53.472;9.794;2022-07-10T07:27:45;16.70;99.90
15969;DHT22;8085;53.472;9.794;2022-07-10T07:30:14;16.90;1.00
15969;DHT22;8085;53.472;9.794;2022-07-10T07:32:43;17.30;99.90
15969;DHT22;8085;53.472;9.794;2022-07-10T07:35:11;17.30;1.00
15969;DHT22;8085;53.472;9.794;2022-07-10T07:38:13;17.00;1.00
15969;DHT22;8085;53.472;9.794;2022-07-10T07:40:41;16.90;1.00
15969;DHT22;8085;53.472;9.794;2022-07-10T07:43:08;17.00;99.90
15969;DHT22;8085;53.472;9.794;2022-07-10T07:45:35;17.30;99.90
15969;DHT22;8085;53.472;9.794;2022-07-10T07:48:04;17.40;99.90
15969;DHT22;8085;53.472;9.794;2022-07-10T07:50:33;17.60;1.00
15969;DHT22;8085;53.472;9.794;2022-07-10T07:53:01;17.70;99.90
15969;DHT22;8085;53.472;9.794;2022-07-10T07:55:29;17.70;1.00
15969;DHT22;8085;53.472;9.794;2022-07-10T07:57:56;17.80;99.90
15969;DHT22;8085;53.472;9.794;2022-07-10T08:00:25;17.90;1.00
15969;DHT22;8085;53.472;9.794;2022-07-10T08:02:53;18.00;1.00
15969;DHT22;8085;53.472;9.794;2022-07-10T08:05:22;18.30;1.00
15969;DHT22;8085;53.472;9.794;2022-07-10T08:07:51;18.40;1.00
15969;DHT22;8085;53.472;9.794;2022-07-10T08:10:20;18.10;2.80
15969;DHT22;8085;53.472;9.794;2022-07-10T08:12:48;17.80;1.00
15969;DHT22;8085;53.472;9.794;2022-07-10T08:15:17;17.50;99.90
15969;DHT22;8085;53.472;9.794;2022-07-10T08:17:47;17.30;99.90
15969;DHT22;8085;53.472;9.794;2022-07-10T08:20:14;17.20;64.90
15969;DHT22;8085;53.472;9.794;2022-07-10T08:22:43;17.40;1.00
15969;DHT22;8085;53.472;9.794;2022-07-10T08:25:10;17.30;1.00
15969;DHT22;8085;53.472;9.794;2022-07-10T08:27:37;17.20;99.90
15969;DHT22;8085;53.472;9.794;2022-07-10T08:30:06;17.70;99.90
15969;DHT22;8085;53.472;9.794;2022-07-10T08:32:34;17.70;99.90
15969;DHT22;8085;53.472;9.794;2022-07-10T08:35:01;17.50;1.00
15969;DHT22;8085;53.472;9.794;2022-07-10T08:37:28;17.30;1.00
15969;DHT22;8085;53.472;9.794;2022-07-10T08:39:56;17.40;1.00
15969;DHT22;8085;53.472;9.794;2022-07-10T08:42:24;18.00;1.00
15969;DHT22;8085;53.472;9.794;2022-07-10T08:44:51;18.20;1.00
15969;DHT22;8085;53.472;9.794;2022-07-10T08:47:21;18.10;99.90
15969;DHT22;8085;53.472;9.794;2022-07-10T08:49:48;18.30;1.00
15969;DHT22;8085;53.472;9.794;2022-07-10T08:52:25;18.40;1.00
15969;DHT22;8085;53.472;9.794;2022-07-10T08:54:52;18.50;1.00
15969;DHT22;8085;53.472;9.794;2022-07-10T08:57:23;18.60;99.90
15969;DHT22;8085;53.472;9.794;2022-07-10T08:59:50;18.80;1.00
15969;DHT22;8085;53.472;9.794;2022-07-10T09:02:17;18.90;99.90
15969;DHT22;8085;53.472;9.794;2022-07-10T09:04:44;19.00;1.00
15969;DHT22;8085;53.472;9.794;2022-07-10T09:07:11;18.90;46.20
15969;DHT22;8085;53.472;9.794;2022-07-10T09:09:52;18.90;1.00
15969;DHT22;8085;53.472;9.794;2022-07-10T09:12:19;19.10;1.00
15969;DHT22;8085;53.472;9.794;2022-07-10T09:14:48;19.40;83.70
15969;DHT22;8085;53.472;9.794;2022-07-10T09:17:16;19.30;99.90
15969;DHT22;8085;53.472;9.794;2022-07-10T09:19:43;19.30;1.00
15969;DHT22;8085;53.472;9.794;2022-07-10T09:22:11;19.50;1.00
15969;DHT22;8085;53.472;9.794;2022-07-10T09:24:40;19.50;99.90
15969;DHT22;8085;53.472;9.794;2022-07-10T09:27:08;19.60;1.00
15969;DHT22;8085;53.472;9.794;2022-07-10T09:29:45;19.50;1.00
15969;DHT22;8085;53.472;9.794;2022-07-10T09:32:15;19.40;1.00
15969;DHT22;8085;53.472;9.794;2022-07-10T09:34:43;18.90;99.90
15969;DHT22;8085;53.472;9.794;2022-07-10T09:37:24;18.80;99.90
15969;DHT22;8085;53.472;9.794;2022-07-10T09:40:00;18.40;99.90
15969;DHT22;8085;53.472;9.794;2022-07-10T09:42:33;18.20;1.00
15969;DHT22;8085;53.472;9.794;2022-07-10T09:45:17;18.40;1.00
15969;DHT22;8085;53.472;9.794;2022-07-10T09:47:53;18.40;99.90
15969;DHT22;8085;53.472;9.794;2022-07-10T09:50:22;18.30;1.00
15969;DHT22;8085;53.472;9.794;2022-07-10T09:52:51;18.50;99.90
15969;DHT22;8085;53.472;9.794;2022-07-10T09:55:20;19.00;1.00
15969;DHT22;8085;53.472;9.794;2022-07-10T09:57:54;19.20;45.80
15969;DHT22;8085;53.472;9.794;2022-07-10T10:00:23;19.50;1.00
15969;DHT22;8085;53.472;9.794;2022-07-10T10:02:56;19.40;99.90
15969;DHT22;8085;53.472;9.794;2022-07-10T10:05:31;19.50;1.00
15969;DHT22;8085;53.472;9.794;2022-07-10T10:08:02;19.20;1.00
15969;DHT22;8085;53.472;9.794;2022-07-10T10:10:32;19.60;1.00
15969;DHT22;8085;53.472;9.794;2022-07-10T10:13:03;20.00;99.90
15969;DHT22;8085;53.472;9.794;2022-07-10T10:15:35;20.00;1.00
15969;DHT22;8085;53.472;9.794;2022-07-10T10:18:04;20.00;99.90
15969;DHT22;8085;53.472;9.794;2022-07-10T10:20:32;20.20;1.00
15969;DHT22;8085;53.472;9.794;2022-07-10T10:23:09;19.80;1.00
15969;DHT22;8085;53.472;9.794;2022-07-10T10:25:37;19.50;1.00
15969;DHT22;8085;53.472;9.794;2022-07-10T10:28:06;19.80;99.90
15969;DHT22;8085;53.472;9.794;2022-07-10T10:30:37;20.30;1.00
15969;DHT22;8085;53.472;9.794;2022-07-10T10:33:44;20.40;1.00
15969;DHT22;8085;53.472;9.794;2022-07-10T10:39:21;19.50;99.90
15969;DHT22;8085;53.472;9.794;2022-07-10T10:41:50;19.80;1.00
15969;DHT22;8085;53.472;9.794;2022-07-10T10:44:30;19.70;99.90
15969;DHT22;8085;53.472;9.794;2022-07-10T10:47:07;19.60;1.00
15969;DHT22;8085;53.472;9.794;2022-07-10T10:49:50;19.80;1.00
15969;DHT22;8085;53.472;9.794;2022-07-10T10:52:18;19.60;1.00
15969;DHT22;8085;53.472;9.794;2022-07-10T10:55:03;19.20;99.90
15969;DHT22;8085;53.472;9.794;2022-07-10T10:57:38;19.00;1.00
15969;DHT22;8085;53.472;9.794;2022-07-10T11:00:12;18.80;1.00
15969;DHT22;8085;53.472;9.794;2022-07-10T11:02:40;18.90;1.00
15969;DHT22;8085;53.472;9.794;2022-07-10T11:05:40;19.00;1.00
15969;DHT22;8085;53.472;9.794;2022-07-10T11:08:11;19.20;99.90
15969;DHT22;8085;53.472;9.794;2022-07-10T11:10:41;19.50;99.90
15969;DHT22;8085;53.472;9.794;2022-07-10T11:13:09;19.70;1.00
15969;DHT22;8085;53.472;9.794;2022-07-10T11:15:38;19.60;99.90
15969;DHT22;8085;53.472;9.794;2022-07-10T11:18:08;20.00;99.90
15969;DHT22;8085;53.472;9.794;2022-07-10T11:20:37;20.20;99.90
15969;DHT22;8085;53.472;9.794;2022-07-10T11:23:30;20.10;1.00
15969;DHT22;8085;53.472;9.794;2022-07-10T11:26:03;19.80;1.00
15969;DHT22;8085;53.472;9.794;2022-07-10T11:28:52;19.10;1.00
15969;DHT22;8085;53.472;9.794;2022-07-10T11:31:21;18.90;1.00
15969;DHT22;8085;53.472;9.794;2022-07-10T11:33:49;19.30;99.90
15969;DHT22;8085;53.472;9.794;2022-07-10T11:36:18;19.50;99.90
15969;DHT22;8085;53.472;9.794;2022-07-10T11:38:56;19.50;99.90
15969;DHT22;8085;53.472;9.794;2022-07-10T11:41:23;19.60;1.00
15969;DHT22;8085;53.472;9.794;2022-07-10T11:43:51;20.10;1.00
15969;DHT22;8085;53.472;9.794;2022-07-10T11:46:19;20.70;1.00
15969;DHT22;8085;53.472;9.794;2022-07-10T11:48:47;20.40;99.90
15969;DHT22;8085;53.472;9.794;2022-07-10T11:51:21;20.20;99.90
15969;DHT22;8085;53.472;9.794;2022-07-10T11:53:55;20.40;99.90
15969;DHT22;8085;53.472;9.794;2022-07-10T11:56:23;20.70;27.90
15969;DHT22;8085;53.472;9.794;2022-07-10T11:58:54;21.10;99.90
15969;DHT22;8085;53.472;9.794;2022-07-10T12:01:21;20.70;1.00
15969;DHT22;8085;53.472;9.794;2022-07-10T12:03:59;20.30;1.00
15969;DHT22;8085;53.472;9.794;2022-07-10T12:06:28;20.00;1.00
15969;DHT22;8085;53.472;9.794;2022-07-10T12:09:01;19.40;1.00
15969;DHT22;8085;53.472;9.794;2022-07-10T12:11:34;19.70;1.00
15969;DHT22;8085;53.472;9.794;2022-07-10T12:14:12;20.20;97.40
15969;DHT22;8085;53.472;9.794;2022-07-10T12:16:40;19.70;1.00
15969;DHT22;8085;53.472;9.794;2022-07-10T12:19:10;20.20;1.00
15969;DHT22;8085;53.472;9.794;2022-07-10T12:21:37;20.20;99.90
15969;DHT22;8085;53.472;9.794;2022-07-10T12:24:07;19.70;38.40
15969;DHT22;8085;53.472;9.794;2022-07-10T12:26:39;19.30;99.90
15969;DHT22;8085;53.472;9.794;2022-07-10T12:29:11;19.50;1.00
15969;DHT22;8085;53.472;9.794;2022-07-10T12:31:39;20.00;99.90
15969;DHT22;8085;53.472;9.794;2022-07-10T12:38:02;20.40;1.00
15969;DHT22;8085;53.472;9.794;2022-07-10T12:40:31;20.00;99.90
15969;DHT22;8085;53.472;9.794;2022-07-10T12:43:02;19.50;99.90
15969;DHT22;8085;53.472;9.794;2022-07-10T12:45:29;19.90;99.90
15969;DHT22;8085;53.472;9.794;2022-07-10T12:47:56;20.00;39.70
15969;DHT22;8085;53.472;9.794;2022-07-10T12:50:24;19.60;99.90
15969;DHT22;8085;53.472;9.794;2022-07-10T12:53:07;20.00;99.90
15969;DHT22;8085;53.472;9.794;2022-07-10T12:55:38;19.90;93.90
15969;DHT22;8085;53.472;9.794;2022-07-10T12:58:08;19.80;99.90
15969;DHT22;8085;53.472;9.794;2022-07-10T13:00:44;19.60;99.90
15969;DHT22;8085;53.472;9.794;2022-07-10T13:03:18;19.60;1.00
15969;DHT22;8085;53.472;9.794;2022-07-10T13:05:45;19.40;99.90
15969;DHT22;8085;53.472;9.794;2022-07-10T13:08:14;19.60;99.90
15969;DHT22;8085;53.472;9.794;2022-07-10T13:10:48;19.90;99.90
15969;DHT22;8085;53.472;9.794;2022-07-10T13:13:16;20.50;99.90
15969;DHT22;8085;53.472;9.794;2022-07-10T13:15:43;20.40;99.90
15969;DHT22;8085;53.472;9.794;2022-07-10T13:18:18;20.20;99.90
15969;DHT22;8085;53.472;9.794;2022-07-10T13:20:47;19.90;99.90
15969;DHT22;8085;53.472;9.794;2022-07-10T13:23:15;19.80;99.90
15969;DHT22;8085;53.472;9.794;2022-07-10T13:25:43;19.90;1.00
15969;DHT22;8085;53.472;9.794;2022-07-10T13:28:11;20.10;1.00
15969;DHT22;8085;53.472;9.794;2022-07-10T13:30:38;20.00;1.00
15969;DHT22;8085;53.472;9.794;2022-07-10T13:33:05;19.90;10.90
15969;DHT22;8085;53.472;9.794;2022-07-10T13:35:33;20.10;99.90
15969;DHT22;8085;53.472;9.794;2022-07-10T13:38:01;20.50;1.00
15969;DHT22;8085;53.472;9.794;2022-07-10T13:40:29;20.70;1.00
15969;DHT22;8085;53.472;9.794;2022-07-10T13:42:58;21.00;1.00
15969;DHT22;8085;53.472;9.794;2022-07-10T13:45:25;21.30;1.00
15969;DHT22;8085;53.472;9.794;2022-07-10T13:47:57;21.20;70.90
15969;DHT22;8085;53.472;9.794;2022-07-10T13:50:25;20.80;99.90
15969;DHT22;8085;53.472;9.794;2022-07-10T13:52:52;20.50;1.00
15969;DHT22;8085;53.472;9.794;2022-07-10T13:55:19;20.10;99.90
15969;DHT22;8085;53.472;9.794;2022-07-10T13:57:46;19.80;1.00
15969;DHT22;8085;53.472;9.794;2022-07-10T14:00:14;19.90;1.00
15969;DHT22;8085;53.472;9.794;2022-07-10T14:02:41;20.30;99.90
15969;DHT22;8085;53.472;9.794;2022-07-10T14:05:08;20.60;1.00
15969;DHT22;8085;53.472;9.794;2022-07-10T14:07:35;20.50;1.00
15969;DHT22;8085;53.472;9.794;2022-07-10T14:10:02;20.40;94.60
15969;DHT22;8085;53.472;9.794;2022-07-10T14:12:31;20.70;1.00
15969;DHT22;8085;53.472;9.794;2022-07-10T14:14:58;20.50;49.90
15969;DHT22;8085;53.472;9.794;2022-07-10T14:17:27;20.30;1.00
15969;DHT22;8085;53.472;9.794;2022-07-10T14:19:58;20.00;1.00
15969;DHT22;8085;53.472;9.794;2022-07-10T14:22:25;19.80;1.00
15969;DHT22;8085;53.472;9.794;2022-07-10T14:24:54;20.00;99.90
15969;DHT22;8085;53.472;9.794;2022-07-10T14:27:22;20.30;31.50
15969;DHT22;8085;53.472;9.794;2022-07-10T14:29:50;20.60;99.90
15969;DHT22;8085;53.472;9.794;2022-07-10T14:32:17;21.00;1.00
15969;DHT22;8085;53.472;9.794;2022-07-10T14:34:45;21.20;99.90
15969;DHT22;8085;53.472;9.794;2022-07-10T14:37:12;20.80;99.90
15969;DHT22;8085;53.472;9.794;2022-07-10T14:39:39;20.00;1.00
15969;DHT22;8085;53.472;9.794;2022-07-10T14:42:06;20.00;1.00
15969;DHT22;8085;53.472;9.794;2022-07-10T14:44:35;19.80;1.00
15969;DHT22;8085;53.472;9.794;2022-07-10T14:47:02;19.70;99.90
15969;DHT22;8085;53.472;9.794;2022-07-10T14:49:29;19.40;1.00
15969;DHT22;8085;53.472;9.794;2022-07-10T14:51:58;19.50;99.90
15969;DHT22;8085;53.472;9.794;2022-07-10T14:54:25;19.50;99.90
15969;DHT22;8085;53.472;9.794;2022-07-10T14:56:52;19.70;1.00
15969;DHT22;8085;53.472;9.794;2022-07-10T14:59:18;19.60;99.90
15969;DHT22;8085;53.472;9.794;2022-07-10T15:01:45;19.30;99.90
15969;DHT22;8085;53.472;9.794;2022-07-10T15:04:12;19.40;83.60
15969;DHT22;8085;53.472;9.794;2022-07-10T15:06:39;19.40;40.60
15969;DHT22;8085;53.472;9.794;2022-07-10T15:09:07;19.40;1.00
15969;DHT22;8085;53.472;9.794;2022-07-10T15:11:34;19.50;99.90
15969;DHT22;8085;53.472;9.794;2022-07-10T15:14:02;19.80;99.90
15969;DHT22;8085;53.472;9.794;2022-07-10T15:16:30;19.80;1.00
15969;DHT22;8085;53.472;9.794;2022-07-10T15:18:57;19.60;1.00
15969;DHT22;8085;53.472;9.794;2022-07-10T15:21:24;19.60;1.00
15969;DHT22;8085;53.472;9.794;2022-07-10T15:23:51;19.50;99.90
15969;DHT22;8085;53.472;9.794;2022-07-10T15:26:19;19.30;1.00
15969;DHT22;8085;53.472;9.794;2022-07-10T15:28:46;19.40;99.90
15969;DHT22;8085;53.472;9.794;2022-07-10T15:31:13;19.40;1.00
15969;DHT22;8085;53.472;9.794;2022-07-10T15:33:40;19.40;99.90
15969;DHT22;8085;53.472;9.794;2022-07-10T15:36:10;19.40;99.90
15969;DHT22;8085;53.472;9.794;2022-07-10T15:38:38;19.50;99.90
15969;DHT22;8085;53.472;9.794;2022-07-10T15:41:05;19.40;1.00
15969;DHT22;8085;53.472;9.794;2022-07-10T15:43:33;19.20;99.90
15969;DHT22;8085;53.472;9.794;2022-07-10T15:46:00;19.10;99.90
15969;DHT22;8085;53.472;9.794;2022-07-10T15:48:27;18.90;1.00
15969;DHT22;8085;53.472;9.794;2022-07-10T15:50:54;18.80;1.00
15969;DHT22;8085;53.472;9.794;2022-07-10T15:53:21;19.30;94.30
15969;DHT22;8085;53.472;9.794;2022-07-10T15:55:48;19.70;92.40
15969;DHT22;8085;53.472;9.794;2022-07-10T15:58:15;20.00;99.90
15969;DHT22;8085;53.472;9.794;2022-07-10T16:00:44;19.90;99.90
15969;DHT22;8085;53.472;9.794;2022-07-10T16:03:11;19.80;99.90
15969;DHT22;8085;53.472;9.794;2022-07-10T16:05:38;20.00;96.90
15969;DHT22;8085;53.472;9.794;2022-07-10T16:08:05;19.90;1.00
15969;DHT22;8085;53.472;9.794;2022-07-10T16:10:32;19.90;99.90